This is the latest recevied weather packets stored in our database for station/object KQ4OSL. If no packets are shown the sender has not sent any weather packets the latest 10 day(s).
| Time | Temp. | Humidity | Pressure | Rain* | Wind** | Luminosity | Snow |
|---|---|---|---|---|---|---|---|
| 1787774006 | 30° C | 66% | 1017 hPa | 0 mm | - | 557 W/m² | - |
| 1787773705 | 30.56° C | 64% | 1017.5 hPa | 0 mm | - | 95 W/m² | - |
| 1787773401 | 31.11° C | 61% | 1017.6 hPa | 0 mm | - | 90 W/m² | - |
| 1787773095 | 31.67° C | 61% | 1017.4 hPa | 0 mm | - | 548 W/m² | - |
| 1787772791 | 30.56° C | 64% | 1017.7 hPa | 0 mm | - | 591 W/m² | - |
| 1787772490 | 30° C | 62% | 1017.6 hPa | 0 mm | - | 161 W/m² | - |
| 1787772189 | 31.11° C | 59% | 1017.8 hPa | 0 mm | - | 203 W/m² | - |
| 1787771889 | 31.11° C | 61% | 1017.8 hPa | 0 mm | - | 617 W/m² | - |
| 1787771589 | 31.11° C | 59% | 1017.8 hPa | 0 mm | - | 226 W/m² | - |
| 1787771282 | 31.67° C | 58% | 1018.1 hPa | 0 mm | - | 638 W/m² | - |
| 1787770978 | 31.67° C | 57% | 1017.9 hPa | 0 mm | - | 687 W/m² | - |
| 1787770677 | 32.22° C | 58% | 1018.3 hPa | 0 mm | - | 675 W/m² | - |
| 1787770372 | 31.67° C | 61% | 1018.5 hPa | 0 mm | - | 690 W/m² | - |
| 1787770070 | 32.22° C | 58% | 1018.4 hPa | 0 mm | - | 689 W/m² | - |
| 1787769765 | 31.67° C | 59% | 1018.7 hPa | 0 mm | - | 713 W/m² | - |
| 1787769464 | 31.11° C | 60% | 1018.9 hPa | 0 mm | - | 718 W/m² | - |
| 1787769159 | 31.67° C | 62% | 1018.7 hPa | 0 mm | - | 724 W/m² | - |
| 1787768859 | 31.67° C | 63% | 1018.9 hPa | 0 mm | - | 722 W/m² | - |
| 1787741868 | 18.89° C | 98% | 1019 hPa | 0 mm | - | 0 W/m² | - |
| 1787741564 | 18.89° C | 98% | 1018.8 hPa | 4.83 mm | - | 0 W/m² | - |
| 1787741259 | 18.89° C | 98% | 1018.9 hPa | 6.1 mm | - | 0 W/m² | - |
| 1787740959 | 18.89° C | 99% | 1018.7 hPa | 4.32 mm | - | 0 W/m² | - |
| 1787740658 | 18.89° C | 99% | 1018.7 hPa | 3.05 mm | - | 0 W/m² | - |
| 1787740353 | 18.89° C | 99% | 1018.8 hPa | 0 mm | - | 0 W/m² | - |
| 1787740048 | 18.89° C | 99% | 1018.7 hPa | 0 mm | - | 0 W/m² | - |
* Rain latest hour (hover to see other rain measurements)
** Current wind speed in m/s (hover to see current wind gust speed)